createdAt,value
2019-06-26T00:01:48.340Z,70.90
2019-06-26T00:06:52.425Z,69.20
2019-06-26T00:11:57.118Z,68.80
2019-06-26T00:17:01.745Z,69.10
2019-06-26T00:22:06.141Z,69.50
2019-06-26T00:27:10.757Z,68.50
2019-06-26T00:32:14.879Z,68.80
2019-06-26T00:37:19.027Z,69.50
2019-06-26T00:42:22.531Z,68.40
2019-06-26T00:47:26.730Z,67.80
2019-06-26T00:52:29.862Z,68.90
2019-06-26T00:57:34.321Z,69.20
2019-06-26T01:02:38.979Z,68.90
2019-06-26T01:07:43.442Z,69.70
2019-06-26T01:12:47.800Z,71.40
2019-06-26T01:17:52.350Z,71.50
2019-06-26T01:22:58.346Z,71.30
2019-06-26T01:28:04.983Z,70.20
2019-06-26T01:33:09.177Z,71.50
2019-06-26T01:38:15.003Z,73.00
2019-06-26T01:43:22.571Z,71.40
2019-06-26T01:48:28.988Z,72.30
2019-06-26T01:53:34.075Z,72.30
2019-06-26T01:58:44.420Z,72.80
2019-06-26T02:03:49.013Z,72.60
2019-06-26T02:08:55.303Z,73.60
2019-06-26T02:14:03.934Z,74.00
2019-06-26T02:19:12.239Z,74.30
2019-06-26T02:24:16.570Z,74.90
2019-06-26T02:29:20.031Z,74.90
2019-06-26T02:34:24.334Z,73.80
2019-06-26T02:39:29.013Z,76.10
2019-06-26T02:44:52.134Z,76.70
2019-06-26T02:49:41.107Z,77.20
2019-06-26T02:54:46.376Z,75.80
2019-06-26T02:59:50.537Z,76.50
2019-06-26T03:05:00.926Z,76.70
2019-06-26T03:10:05.940Z,76.50
2019-06-26T03:15:10.432Z,77.20
2019-06-26T03:20:20.356Z,79.30
2019-06-26T03:25:24.677Z,77.30
2019-06-26T03:30:30.472Z,79.40
2019-06-26T03:35:35.156Z,80.30
2019-06-26T03:40:44.030Z,80.60
2019-06-26T03:45:51.769Z,80.30
2019-06-26T03:50:56.249Z,80.20
2019-06-26T03:56:00.825Z,80.30
2019-06-26T04:01:05.280Z,79.10
2019-06-26T04:06:10.949Z,79.40
2019-06-26T04:11:22.173Z,78.70
2019-06-26T04:16:26.208Z,77.40
2019-06-26T04:21:33.610Z,76.90
2019-06-26T04:26:39.891Z,76.70
2019-06-26T04:31:51.707Z,75.10
2019-06-26T04:36:56.565Z,73.00
2019-06-26T04:42:04.977Z,72.40
2019-06-26T04:47:13.499Z,70.10
2019-06-26T04:52:17.547Z,70.10
2019-06-26T04:57:24.268Z,67.70
2019-06-26T05:02:28.685Z,66.60
2019-06-26T05:07:33.647Z,65.80
2019-06-26T05:12:38.474Z,64.20
2019-06-26T05:17:42.828Z,63.60
2019-06-26T05:22:47.052Z,61.70
2019-06-26T05:27:51.695Z,60.70
2019-06-26T05:32:56.533Z,59.40
2019-06-26T05:38:00.981Z,58.90
2019-06-26T05:43:07.602Z,57.80
2019-06-26T05:48:11.754Z,57.30
2019-06-26T05:53:16.299Z,55.80
2019-06-26T05:58:20.693Z,55.70
2019-06-26T06:03:25.077Z,55.00
2019-06-26T06:08:29.416Z,53.80
2019-06-26T06:13:34.011Z,52.60
2019-06-26T06:18:41.338Z,52.20
2019-06-26T06:23:48.260Z,50.90
2019-06-26T06:28:52.905Z,51.60
2019-06-26T06:34:04.776Z,51.00
2019-06-26T06:39:09.148Z,50.30
2019-06-26T06:44:13.801Z,50.00
2019-06-26T06:49:17.947Z,49.80
2019-06-26T06:54:22.240Z,48.50
2019-06-26T06:59:27.245Z,47.70
2019-06-26T07:04:31.667Z,47.10
2019-06-26T07:09:36.099Z,47.60
2019-06-26T07:14:40.251Z,46.20
2019-06-26T07:19:45.941Z,46.60
2019-06-26T07:24:50.104Z,45.30
2019-06-26T07:29:54.341Z,45.10
2019-06-26T07:34:58.523Z,44.40
2019-06-26T07:40:02.757Z,44.30
2019-06-26T07:45:07.364Z,44.50
2019-06-26T07:50:12.917Z,43.50
2019-06-26T07:55:17.291Z,44.00
2019-06-26T08:00:21.662Z,42.50
2019-06-26T08:05:26.050Z,42.30
2019-06-26T08:10:30.234Z,42.10
2019-06-26T08:15:34.676Z,41.10
2019-06-26T08:20:55.092Z,40.90
2019-06-26T08:25:45.067Z,40.50
2019-06-26T08:30:49.524Z,40.00
2019-06-26T08:35:53.727Z,40.30
2019-06-26T08:40:57.900Z,40.70
2019-06-26T08:46:02.077Z,38.90
2019-06-26T08:51:06.603Z,39.40
2019-06-26T08:56:11.633Z,40.50
2019-06-26T09:01:15.809Z,40.00
2019-06-26T09:06:20.352Z,39.50
2019-06-26T09:11:24.563Z,40.10
2019-06-26T09:16:30.291Z,40.10
2019-06-26T09:21:34.702Z,41.20
2019-06-26T09:26:38.983Z,41.10
2019-06-26T09:31:43.316Z,39.60
2019-06-26T09:36:47.417Z,39.80
2019-06-26T09:41:51.856Z,39.40
2019-06-26T09:46:56.630Z,38.20
2019-06-26T09:52:02.215Z,39.20
2019-06-26T09:57:06.414Z,38.50
2019-06-26T10:02:10.868Z,37.50
2019-06-26T10:07:15.739Z,36.80
2019-06-26T10:12:20.496Z,35.40
2019-06-26T10:17:24.890Z,36.20
2019-06-26T10:22:29.101Z,34.70
2019-06-26T10:27:33.891Z,33.90
2019-06-26T10:32:40.129Z,33.70
2019-06-26T10:37:44.482Z,33.80
2019-06-26T10:42:51.087Z,35.30
2019-06-26T10:47:55.406Z,33.60
2019-06-26T10:52:59.741Z,34.10
2019-06-26T10:58:03.852Z,32.60
2019-06-26T11:03:08.072Z,34.90
2019-06-26T11:08:12.407Z,34.10
2019-06-26T11:13:18.461Z,34.00
2019-06-26T11:18:22.622Z,36.00
2019-06-26T11:23:26.830Z,36.00
2019-06-26T11:28:30.835Z,33.40
2019-06-26T11:33:37.978Z,35.50
2019-06-26T11:38:42.453Z,34.50
2019-06-26T11:43:48.125Z,34.70
2019-06-26T11:48:52.863Z,36.10
2019-06-26T11:53:58.984Z,34.40
2019-06-26T11:59:02.794Z,35.70
2019-06-26T12:04:06.986Z,36.60
2019-06-26T12:09:11.530Z,36.70
2019-06-26T12:14:17.494Z,36.80
2019-06-26T12:19:23.583Z,37.80
2019-06-26T12:24:28.251Z,37.80
2019-06-26T12:29:33.093Z,37.20
2019-06-26T12:34:39.361Z,38.60
2019-06-26T12:39:43.944Z,39.20
2019-06-26T12:44:48.582Z,40.30
2019-06-26T12:49:53.061Z,40.50
2019-06-26T12:54:59.271Z,41.60
2019-06-26T13:00:12.597Z,43.70
2019-06-26T13:05:17.024Z,42.00
2019-06-26T13:10:23.035Z,41.50
2019-06-26T13:15:27.452Z,42.00
2019-06-26T13:20:31.660Z,41.10
2019-06-26T13:25:36.173Z,41.80
2019-06-26T13:30:40.873Z,43.20
2019-06-26T13:35:45.427Z,45.00
2019-06-26T13:41:11.121Z,45.30
2019-06-26T13:46:15.165Z,44.70
2019-06-26T13:51:21.453Z,45.00
2019-06-26T13:56:25.136Z,43.90
2019-06-26T14:01:29.633Z,44.80
2019-06-26T14:06:35.625Z,43.90
2019-06-26T14:11:40.178Z,44.10
2019-06-26T14:16:45.225Z,43.50
2019-06-26T14:21:49.585Z,43.80
2019-06-26T14:26:53.875Z,42.40
2019-06-26T14:31:58.089Z,43.50
2019-06-26T14:37:02.614Z,44.30
2019-06-26T14:42:06.788Z,44.90
2019-06-26T14:47:10.894Z,46.30
2019-06-26T14:52:18.041Z,46.20
2019-06-26T14:57:26.159Z,47.30
2019-06-26T15:02:34.855Z,46.60
2019-06-26T15:07:41.935Z,46.70
2019-06-26T15:12:46.075Z,46.80
2019-06-26T15:17:50.262Z,47.90
2019-06-26T15:22:58.890Z,46.90
2019-06-26T15:28:05.100Z,47.90
2019-06-26T15:33:09.689Z,47.90
2019-06-26T15:38:13.857Z,48.30
2019-06-26T15:43:41.300Z,48.50
2019-06-26T15:48:45.396Z,48.80
2019-06-26T15:53:49.789Z,48.90
2019-06-26T15:58:54.092Z,50.10
2019-06-26T16:03:58.318Z,50.20
2019-06-26T16:09:02.510Z,50.60
2019-06-26T16:14:06.729Z,50.20
2019-06-26T16:19:31.224Z,50.90
2019-06-26T16:24:35.728Z,50.50
2019-06-26T16:30:01.821Z,50.70
2019-06-26T16:35:06.602Z,51.20
2019-06-26T16:40:14.282Z,51.80
2019-06-26T16:45:18.731Z,51.80
2019-06-26T16:50:24.554Z,52.30
2019-06-26T16:55:28.781Z,52.80
2019-06-26T17:00:32.998Z,52.70
2019-06-26T17:05:37.623Z,53.70
2019-06-26T17:10:41.817Z,53.90
2019-06-26T17:15:46.153Z,54.40
2019-06-26T17:20:50.420Z,54.60
2019-06-26T17:25:55.419Z,54.10
2019-06-26T17:31:00.778Z,54.20
2019-06-26T17:36:04.993Z,54.40
2019-06-26T17:41:09.411Z,55.00
2019-06-26T17:46:13.560Z,55.00
2019-06-26T17:51:18.104Z,55.40
2019-06-26T17:56:22.480Z,55.70
2019-06-26T18:01:26.628Z,56.80
2019-06-26T18:06:32.335Z,57.40
2019-06-26T18:11:36.526Z,58.10
2019-06-26T18:16:42.585Z,58.60
2019-06-26T18:21:51.008Z,59.10
2019-06-26T18:26:57.531Z,59.60
2019-06-26T18:32:01.850Z,59.70
2019-06-26T18:37:06.070Z,59.60
2019-06-26T18:42:10.148Z,60.00
2019-06-26T18:47:16.897Z,59.60
2019-06-26T18:52:21.022Z,59.80
2019-06-26T18:57:28.209Z,59.90
2019-06-26T19:02:35.106Z,61.20
2019-06-26T19:07:39.515Z,61.80
2019-06-26T19:12:43.705Z,61.90
2019-06-26T19:17:48.000Z,62.30
2019-06-26T19:22:55.184Z,63.60
2019-06-26T19:27:59.372Z,63.80
2019-06-26T19:33:05.966Z,64.70
2019-06-26T19:38:10.566Z,65.00
2019-06-26T19:43:14.685Z,65.50
2019-06-26T19:48:17.821Z,65.70
2019-06-26T19:53:21.916Z,65.60
2019-06-26T19:58:26.228Z,64.50
2019-06-26T20:03:30.695Z,66.00
2019-06-26T20:08:34.906Z,65.10
2019-06-26T20:13:39.152Z,65.30
2019-06-26T20:18:42.601Z,64.80
2019-06-26T20:23:46.831Z,65.90
2019-06-26T20:28:50.950Z,65.30
2019-06-26T20:33:55.102Z,65.60
2019-06-26T20:39:00.991Z,67.70
2019-06-26T20:44:05.155Z,67.30
2019-06-26T20:49:08.265Z,68.00
2019-06-26T20:54:12.586Z,68.10
2019-06-26T20:59:16.680Z,69.80
2019-06-26T21:04:21.405Z,69.90
2019-06-26T21:09:27.209Z,69.90
2019-06-26T21:14:32.634Z,68.80
2019-06-26T21:19:37.129Z,68.60
2019-06-26T21:24:43.538Z,69.90
2019-06-26T21:29:49.010Z,71.40
2019-06-26T21:34:55.925Z,72.10
2019-06-26T21:40:00.025Z,72.00
2019-06-26T21:45:04.404Z,72.70
2019-06-26T21:50:08.968Z,71.50
2019-06-26T21:55:13.587Z,74.30
2019-06-26T22:00:19.719Z,72.10
2019-06-26T22:05:24.217Z,74.50
2019-06-26T22:10:28.452Z,76.30
2019-06-26T22:15:32.975Z,76.20
2019-06-26T22:20:41.348Z,74.50
2019-06-26T22:25:50.718Z,76.00
2019-06-26T22:30:51.976Z,76.10
2019-06-26T22:35:56.447Z,76.50
2019-06-26T22:41:00.812Z,78.00
2019-06-26T22:46:03.938Z,77.00
2019-06-26T22:51:08.300Z,75.70
2019-06-26T22:56:13.339Z,76.60
2019-06-26T23:01:18.199Z,79.00
2019-06-26T23:06:22.274Z,80.90
2019-06-26T23:11:26.498Z,79.10
2019-06-26T23:16:30.647Z,80.70
2019-06-26T23:21:38.388Z,81.40
2019-06-26T23:26:43.941Z,78.40
2019-06-26T23:32:03.408Z,81.90
2019-06-26T23:37:09.387Z,80.80
2019-06-26T23:42:15.526Z,82.00
2019-06-26T23:47:19.505Z,82.60
2019-06-26T23:52:23.752Z,81.10
2019-06-26T23:57:28.079Z,82.20
